createdAt,value
2022-10-06T00:00:18.356Z,17.80
2022-10-06T00:04:08.189Z,12.80
2022-10-06T00:07:50.890Z,13.30
2022-10-06T00:11:40.617Z,13.90
2022-10-06T00:15:29.530Z,15.40
2022-10-06T00:19:18.546Z,12.40
2022-10-06T00:23:07.427Z,10.80
2022-10-06T00:26:56.201Z,17.10
2022-10-06T00:30:34.920Z,11.80
2022-10-06T00:34:02.435Z,12.20
2022-10-06T00:37:51.285Z,13.10
2022-10-06T00:41:30.097Z,16.20
2022-10-06T00:45:17.584Z,20.30
2022-10-06T00:48:50.724Z,12.20
2022-10-06T00:52:04.160Z,15.00
2022-10-06T00:55:54.170Z,11.30
2022-10-06T00:59:43.006Z,13.60
2022-10-06T01:03:16.517Z,13.80
2022-10-06T01:07:06.969Z,12.70
2022-10-06T01:10:49.044Z,9.60
2022-10-06T01:14:06.699Z,13.50
2022-10-06T01:17:48.155Z,11.60
2022-10-06T01:21:00.406Z,9.90
2022-10-06T01:24:38.047Z,11.70
2022-10-06T01:28:18.270Z,13.70
2022-10-06T01:31:32.751Z,10.80
2022-10-06T01:35:17.880Z,16.10
2022-10-06T01:38:57.655Z,15.30
2022-10-06T01:42:40.462Z,11.30
2022-10-06T01:46:36.505Z,11.70
2022-10-06T01:50:25.488Z,16.70
2022-10-06T01:53:59.179Z,13.10
2022-10-06T01:57:36.416Z,11.70
2022-10-06T02:00:39.853Z,11.20
2022-10-06T02:04:28.695Z,13.70
2022-10-06T02:08:17.601Z,11.50
2022-10-06T02:11:59.221Z,12.20
2022-10-06T02:15:48.164Z,11.00
2022-10-06T02:19:35.696Z,14.00
2022-10-06T02:23:24.614Z,13.00
2022-10-06T02:26:57.897Z,10.90
2022-10-06T02:30:33.576Z,10.80
2022-10-06T02:33:58.969Z,12.70
2022-10-06T02:37:47.781Z,9.70
2022-10-06T02:41:28.214Z,11.30
2022-10-06T02:45:16.111Z,17.60
2022-10-06T02:48:57.615Z,14.00
2022-10-06T02:52:46.607Z,11.70
2022-10-06T02:56:15.443Z,11.20
2022-10-06T03:00:04.065Z,11.30
2022-10-06T03:03:36.307Z,11.30
2022-10-06T03:06:58.938Z,14.00
2022-10-06T03:10:47.992Z,10.20
2022-10-06T03:14:29.625Z,10.80
2022-10-06T03:18:18.677Z,11.50
2022-10-06T03:22:07.239Z,11.10
2022-10-06T03:25:34.781Z,9.90
2022-10-06T03:28:50.583Z,8.90
2022-10-06T03:32:33.186Z,14.20
2022-10-06T03:36:21.683Z,11.00
2022-10-06T03:40:07.512Z,12.00
2022-10-06T03:43:48.869Z,9.90
2022-10-06T03:47:37.698Z,6.60
2022-10-06T03:51:26.529Z,7.80
2022-10-06T03:55:15.470Z,12.10
2022-10-06T03:59:04.368Z,9.20
2022-10-06T04:02:55.829Z,6.40
2022-10-06T04:06:44.688Z,10.10
2022-10-06T04:10:28.925Z,12.40
2022-10-06T04:14:17.717Z,7.00
2022-10-06T04:18:05.163Z,7.40
2022-10-06T04:21:53.576Z,8.40
2022-10-06T04:25:41.264Z,7.70
2022-10-06T04:29:30.138Z,7.20
2022-10-06T04:33:20.053Z,7.80
2022-10-06T04:37:09.116Z,9.90
2022-10-06T04:40:43.448Z,6.80
2022-10-06T04:44:01.689Z,11.20
2022-10-06T04:47:20.982Z,7.90
2022-10-06T04:50:59.794Z,9.70
2022-10-06T04:54:49.211Z,6.50
2022-10-06T04:58:38.791Z,8.00
2022-10-06T05:02:27.833Z,11.00
2022-10-06T05:06:13.104Z,9.60
2022-10-06T05:10:02.190Z,7.50
2022-10-06T05:13:51.100Z,6.40
2022-10-06T05:16:55.756Z,6.70
2022-10-06T05:20:13.638Z,9.00
2022-10-06T05:23:40.475Z,14.40
2022-10-06T05:27:28.304Z,7.50
2022-10-06T05:31:07.904Z,7.20
2022-10-06T05:34:57.473Z,7.10
2022-10-06T05:38:41.651Z,6.90
2022-10-06T05:42:31.941Z,10.70
2022-10-06T05:46:10.298Z,9.80
2022-10-06T05:49:54.220Z,6.10
2022-10-06T05:53:43.242Z,8.90
2022-10-06T05:57:27.996Z,11.10
2022-10-06T06:00:56.566Z,7.70
2022-10-06T06:04:48.248Z,8.80
2022-10-06T06:08:32.477Z,8.90
2022-10-06T06:12:00.457Z,10.60
2022-10-06T06:15:51.148Z,9.50
2022-10-06T06:19:40.211Z,11.30
2022-10-06T06:23:20.561Z,14.20
2022-10-06T06:27:09.439Z,8.90
2022-10-06T06:30:50.755Z,10.50
2022-10-06T06:34:39.830Z,10.30
2022-10-06T06:38:29.131Z,12.40
2022-10-06T06:42:18.800Z,6.30
2022-10-06T06:46:08.856Z,9.60
2022-10-06T06:50:06.925Z,7.10
2022-10-06T06:53:55.761Z,11.60
2022-10-06T06:57:38.331Z,6.20
2022-10-06T07:01:27.368Z,5.60
2022-10-06T07:05:16.190Z,6.90
2022-10-06T07:09:04.821Z,5.60
2022-10-06T07:12:53.646Z,6.00
2022-10-06T07:16:41.353Z,7.60
2022-10-06T07:20:28.955Z,6.30
2022-10-06T07:24:16.059Z,5.50
2022-10-06T07:28:05.149Z,8.20
2022-10-06T07:31:47.404Z,5.10
2022-10-06T07:35:30.518Z,8.00
2022-10-06T07:39:20.062Z,10.60
2022-10-06T07:43:09.724Z,6.40
2022-10-06T07:46:59.664Z,10.70
2022-10-06T07:50:49.089Z,10.40
2022-10-06T07:54:38.101Z,9.40
2022-10-06T07:58:27.124Z,6.40
2022-10-06T08:02:16.174Z,7.80
2022-10-06T08:05:48.149Z,10.10
2022-10-06T08:09:32.035Z,11.60
2022-10-06T08:13:21.113Z,12.80
2022-10-06T08:17:10.391Z,8.60
2022-10-06T08:20:46.959Z,9.10
2022-10-06T08:25:01.133Z,9.60
2022-10-06T08:28:44.852Z,5.50
2022-10-06T08:32:34.360Z,6.20
2022-10-06T08:36:27.038Z,9.00
2022-10-06T08:40:22.143Z,6.80
2022-10-06T08:44:11.723Z,7.40
2022-10-06T08:48:00.863Z,6.10
2022-10-06T08:52:01.977Z,5.60
2022-10-06T08:55:53.900Z,6.60
2022-10-06T08:59:43.002Z,6.20
2022-10-06T09:03:32.571Z,3.40
2022-10-06T09:07:42.832Z,8.60
2022-10-06T09:11:47.491Z,3.00
2022-10-06T09:15:40.346Z,5.90
2022-10-06T09:19:38.710Z,7.80
2022-10-06T09:23:26.214Z,3.50
2022-10-06T09:27:15.663Z,3.90
2022-10-06T09:31:04.730Z,5.30
2022-10-06T09:35:05.888Z,3.00
2022-10-06T09:38:55.184Z,1.00
2022-10-06T09:42:44.626Z,2.90
2022-10-06T09:46:34.366Z,1.30
2022-10-06T09:50:26.547Z,5.30
2022-10-06T09:54:15.963Z,6.50
2022-10-06T09:58:17.864Z,4.80
2022-10-06T10:02:07.719Z,1.30
2022-10-06T10:05:59.521Z,3.70
2022-10-06T10:09:58.066Z,3.00
2022-10-06T10:13:59.516Z,4.80
2022-10-06T10:17:50.260Z,3.50
2022-10-06T10:21:48.462Z,2.40
2022-10-06T10:25:43.359Z,2.70
2022-10-06T10:29:47.451Z,1.90
2022-10-06T10:33:36.424Z,1.20
2022-10-06T10:37:31.856Z,2.50
2022-10-06T10:41:21.805Z,3.80
2022-10-06T10:45:20.524Z,2.90
2022-10-06T10:49:19.061Z,3.60
2022-10-06T10:53:14.212Z,5.10
2022-10-06T10:57:03.576Z,3.80
2022-10-06T11:01:01.914Z,2.60
2022-10-06T11:04:51.434Z,1.70
2022-10-06T11:08:40.568Z,5.90
2022-10-06T11:12:35.436Z,0.80
2022-10-06T11:16:27.533Z,3.60
2022-10-06T11:20:35.009Z,4.50
2022-10-06T11:24:30.138Z,2.40
2022-10-06T11:28:27.895Z,3.20
2022-10-06T11:32:22.432Z,4.10
2022-10-06T11:36:24.589Z,7.80
2022-10-06T11:40:19.844Z,1.10
2022-10-06T11:44:26.832Z,2.70
2022-10-06T11:48:16.332Z,2.50
2022-10-06T11:52:11.512Z,10.70
2022-10-06T11:56:13.304Z,4.30
2022-10-06T12:03:59.393Z,1.20
2022-10-06T12:07:47.809Z,4.10
2022-10-06T12:11:35.755Z,6.30
2022-10-06T12:19:27.312Z,7.20
2022-10-06T12:23:15.636Z,6.90
2022-10-06T12:26:42.626Z,3.30
2022-10-06T12:30:53.380Z,2.70
2022-10-06T12:34:31.869Z,2.00
2022-10-06T12:38:20.081Z,4.80
2022-10-06T12:42:10.485Z,1.80
2022-10-06T12:45:58.517Z,3.90
2022-10-06T12:49:47.306Z,4.30
2022-10-06T12:53:44.148Z,1.90
2022-10-06T12:57:41.367Z,3.90
2022-10-06T13:01:31.087Z,6.50
2022-10-06T13:05:33.747Z,2.40
2022-10-06T13:09:21.504Z,3.80
2022-10-06T13:13:24.657Z,2.30
2022-10-06T13:17:12.787Z,2.10
2022-10-06T13:21:00.448Z,7.00
2022-10-06T13:24:47.691Z,3.50
2022-10-06T13:28:28.398Z,4.20
2022-10-06T13:32:20.135Z,4.80
2022-10-06T13:36:03.259Z,1.80
2022-10-06T13:39:53.925Z,1.90
2022-10-06T13:43:41.597Z,3.60
2022-10-06T13:47:29.655Z,3.10
2022-10-06T13:51:17.275Z,4.60
2022-10-06T13:55:24.282Z,3.60
2022-10-06T13:59:15.371Z,4.70
2022-10-06T14:03:16.984Z,5.90
2022-10-06T14:07:11.074Z,3.50
2022-10-06T14:11:06.408Z,5.00
2022-10-06T14:15:01.953Z,1.60
2022-10-06T14:18:46.577Z,2.70
2022-10-06T14:22:40.962Z,2.90
2022-10-06T14:26:30.708Z,2.30
2022-10-06T14:30:21.292Z,3.90
2022-10-06T14:34:09.444Z,2.10
2022-10-06T14:38:00.297Z,5.10
2022-10-06T14:41:48.986Z,6.30
2022-10-06T14:45:27.615Z,5.10
2022-10-06T14:49:13.977Z,3.70
2022-10-06T14:53:02.079Z,4.90
2022-10-06T14:56:43.784Z,4.60
2022-10-06T15:00:32.989Z,0.70
2022-10-06T15:04:24.686Z,5.90
2022-10-06T15:07:47.555Z,1.40
2022-10-06T15:11:23.005Z,2.40
2022-10-06T15:14:36.384Z,2.30
2022-10-06T15:17:55.297Z,4.00
2022-10-06T15:21:00.474Z,2.50
2022-10-06T15:24:20.471Z,5.70
2022-10-06T15:31:33.925Z,3.70
2022-10-06T15:34:47.144Z,5.80
2022-10-06T15:38:03.737Z,8.00
2022-10-06T15:42:10.238Z,5.60
2022-10-06T15:46:38.305Z,4.10
2022-10-06T15:50:00.920Z,10.60
2022-10-06T15:53:48.841Z,7.90
2022-10-06T15:57:38.018Z,4.20
2022-10-06T16:01:09.671Z,5.40
2022-10-06T16:04:57.583Z,5.90
2022-10-06T16:08:46.208Z,5.20
2022-10-06T16:12:27.733Z,10.60
2022-10-06T16:16:16.092Z,3.80
2022-10-06T16:19:58.415Z,6.70
2022-10-06T16:23:46.953Z,7.30
2022-10-06T16:27:35.641Z,9.10
2022-10-06T16:31:24.026Z,15.10
2022-10-06T16:35:05.397Z,15.30
2022-10-06T16:38:53.963Z,16.90
2022-10-06T16:42:42.313Z,10.80
2022-10-06T16:46:20.337Z,17.30
2022-10-06T16:50:08.459Z,12.90
2022-10-06T16:53:56.686Z,18.40
2022-10-06T16:57:37.198Z,19.40
2022-10-06T17:01:25.087Z,16.80
2022-10-06T17:05:17.427Z,10.40
2022-10-06T17:09:05.257Z,12.00
2022-10-06T17:12:56.020Z,10.60
2022-10-06T17:16:44.844Z,15.40
2022-10-06T17:20:32.812Z,12.40
2022-10-06T17:24:06.272Z,7.10
2022-10-06T17:27:31.456Z,7.40
2022-10-06T17:30:51.212Z,8.90
2022-10-06T17:34:21.188Z,12.00
2022-10-06T17:38:02.578Z,13.20
2022-10-06T17:41:15.830Z,7.50
2022-10-06T17:44:32.287Z,8.50
2022-10-06T17:48:04.276Z,14.30
2022-10-06T17:51:50.847Z,12.90
2022-10-06T17:55:39.104Z,15.00
2022-10-06T17:59:32.843Z,11.40
2022-10-06T18:03:13.165Z,12.30
2022-10-06T18:06:40.650Z,10.60
2022-10-06T18:10:27.427Z,18.00
2022-10-06T18:14:16.253Z,10.40
2022-10-06T18:17:43.998Z,10.40
2022-10-06T18:20:41.457Z,10.60
2022-10-06T18:24:08.978Z,11.30
2022-10-06T18:27:40.832Z,8.50
2022-10-06T18:30:54.340Z,17.80
2022-10-06T18:38:24.909Z,24.50
2022-10-06T18:42:05.777Z,13.60
2022-10-06T18:45:52.515Z,10.50
2022-10-06T18:49:27.587Z,14.90
2022-10-06T18:52:45.228Z,13.40
2022-10-06T18:55:54.260Z,14.90
2022-10-06T18:59:43.722Z,17.90
2022-10-06T19:03:14.400Z,16.10
2022-10-06T19:07:05.153Z,16.00
2022-10-06T19:10:38.532Z,20.80
2022-10-06T19:13:57.481Z,14.60
2022-10-06T19:17:22.170Z,17.50
2022-10-06T19:20:45.388Z,17.60
2022-10-06T19:24:08.906Z,16.90
2022-10-06T19:27:49.022Z,17.40
2022-10-06T19:31:26.035Z,16.90
2022-10-06T19:34:56.103Z,9.70
2022-10-06T19:38:45.233Z,20.20
2022-10-06T19:42:18.445Z,14.10
2022-10-06T19:45:54.143Z,17.40
2022-10-06T19:49:31.396Z,13.10
2022-10-06T19:52:57.161Z,16.00
2022-10-06T19:56:25.282Z,18.90
2022-10-06T19:59:43.955Z,26.20
2022-10-06T20:03:07.108Z,21.60
2022-10-06T20:06:45.082Z,27.00
2022-10-06T20:10:26.634Z,29.00
2022-10-06T20:14:19.778Z,24.30
2022-10-06T20:18:08.267Z,22.10
2022-10-06T20:21:41.357Z,27.20
2022-10-06T20:25:12.436Z,24.50
2022-10-06T20:28:59.789Z,21.90
2022-10-06T20:32:38.534Z,22.70
2022-10-06T20:36:21.828Z,24.50
2022-10-06T20:39:38.874Z,26.30
2022-10-06T20:42:44.452Z,17.30
2022-10-06T20:46:17.967Z,19.40
2022-10-06T20:49:31.185Z,27.30
2022-10-06T20:52:42.624Z,25.40
2022-10-06T20:56:22.043Z,29.80
2022-10-06T20:59:25.482Z,23.00
2022-10-06T21:02:41.585Z,26.30
2022-10-06T21:05:42.969Z,23.30
2022-10-06T21:08:44.008Z,25.80
2022-10-06T21:11:37.248Z,19.40
2022-10-06T21:14:54.566Z,29.00
2022-10-06T21:18:13.300Z,18.80
2022-10-06T21:21:29.711Z,33.80
2022-10-06T21:25:11.031Z,41.50
2022-10-06T21:28:22.085Z,31.90
2022-10-06T21:31:23.614Z,23.40
2022-10-06T21:35:02.780Z,25.30
2022-10-06T21:38:43.337Z,27.10
2022-10-06T21:42:10.015Z,27.10
2022-10-06T21:45:24.365Z,30.00
2022-10-06T21:48:22.334Z,29.30
2022-10-06T21:51:48.870Z,30.70
2022-10-06T21:54:57.432Z,33.40
2022-10-06T21:58:45.604Z,25.80
2022-10-06T22:02:04.604Z,34.00
2022-10-06T22:05:22.004Z,28.00
2022-10-06T22:08:14.954Z,24.10
2022-10-06T22:11:43.148Z,32.60
2022-10-06T22:15:05.560Z,34.00
2022-10-06T22:18:05.263Z,27.10
2022-10-06T22:21:08.932Z,26.70
2022-10-06T22:24:14.215Z,30.40
2022-10-06T22:28:01.829Z,25.50
2022-10-06T22:31:08.170Z,28.70
2022-10-06T22:34:32.096Z,30.50
2022-10-06T22:37:30.830Z,28.30
2022-10-06T22:40:39.280Z,34.80
2022-10-06T22:43:34.561Z,37.50
2022-10-06T22:46:31.975Z,38.00
2022-10-06T22:49:19.337Z,38.80
2022-10-06T22:52:03.289Z,33.50
2022-10-06T22:54:43.420Z,32.40
2022-10-06T22:57:36.062Z,31.90
2022-10-06T23:00:26.856Z,33.70
2022-10-06T23:03:57.317Z,35.50
2022-10-06T23:07:18.478Z,42.50
2022-10-06T23:10:21.091Z,34.30
2022-10-06T23:12:53.534Z,32.90
2022-10-06T23:15:24.424Z,35.40
2022-10-06T23:18:08.032Z,31.60
2022-10-06T23:21:39.157Z,31.60
2022-10-06T23:24:29.973Z,34.80
2022-10-06T23:27:10.601Z,35.90
2022-10-06T23:29:50.619Z,35.00
2022-10-06T23:33:03.980Z,30.90
2022-10-06T23:35:42.162Z,38.10
2022-10-06T23:38:22.858Z,27.30
2022-10-06T23:41:27.526Z,32.80
2022-10-06T23:44:32.720Z,29.90
2022-10-06T23:48:03.042Z,30.60
2022-10-06T23:51:43.631Z,31.20
2022-10-06T23:55:30.038Z,34.00
2022-10-06T23:58:29.573Z,29.70
